createdAt,value
2018-12-03T00:00:51.046Z,91.10
2018-12-03T00:03:19.531Z,91.00
2018-12-03T00:05:47.394Z,91.00
2018-12-03T00:08:15.232Z,91.00
2018-12-03T00:10:43.209Z,91.10
2018-12-03T00:13:10.951Z,91.10
2018-12-03T00:15:38.764Z,91.10
2018-12-03T00:18:06.682Z,91.10
2018-12-03T00:20:34.504Z,91.10
2018-12-03T00:23:02.363Z,91.20
2018-12-03T00:25:30.203Z,91.20
2018-12-03T00:27:58.091Z,91.20
2018-12-03T00:30:25.958Z,91.20
2018-12-03T00:32:53.848Z,91.20
2018-12-03T00:35:21.707Z,91.20
2018-12-03T00:37:49.576Z,91.20
2018-12-03T00:40:17.450Z,91.10
2018-12-03T00:42:45.330Z,91.10
2018-12-03T00:45:13.238Z,91.10
2018-12-03T00:47:41.060Z,91.10
2018-12-03T00:50:08.818Z,91.10
2018-12-03T00:52:36.585Z,91.20
2018-12-03T00:55:05.930Z,91.20
2018-12-03T00:57:33.690Z,91.20
2018-12-03T01:00:01.453Z,91.10
2018-12-03T01:02:29.203Z,91.10
2018-12-03T01:04:56.953Z,91.10
2018-12-03T01:07:24.810Z,91.10
2018-12-03T01:09:52.564Z,91.00
2018-12-03T01:12:20.359Z,90.90
2018-12-03T01:14:48.358Z,91.00
2018-12-03T01:17:16.106Z,91.10
2018-12-03T01:19:43.829Z,91.10
2018-12-03T01:22:11.547Z,91.10
2018-12-03T01:24:39.363Z,91.20
2018-12-03T01:27:07.114Z,91.10
2018-12-03T01:29:34.896Z,91.20
2018-12-03T01:32:02.647Z,91.20
2018-12-03T01:34:30.360Z,91.20
2018-12-03T01:36:58.134Z,91.10
2018-12-03T01:39:25.940Z,90.90
2018-12-03T01:41:53.668Z,91.00
2018-12-03T01:44:21.415Z,91.10
2018-12-03T01:46:49.204Z,91.20
2018-12-03T01:49:16.986Z,91.10
2018-12-03T01:51:44.726Z,91.20
2018-12-03T01:54:12.487Z,91.20
2018-12-03T01:56:40.322Z,91.10
2018-12-03T01:59:08.104Z,91.00
2018-12-03T02:01:35.915Z,91.10
2018-12-03T02:04:03.752Z,91.20
2018-12-03T02:06:31.495Z,91.20
2018-12-03T02:08:59.228Z,91.20
2018-12-03T02:11:27.011Z,91.20
2018-12-03T02:13:54.823Z,91.20
2018-12-03T02:16:22.580Z,91.20
2018-12-03T02:18:50.339Z,91.30
2018-12-03T02:21:18.139Z,91.40
2018-12-03T02:23:45.886Z,91.50
2018-12-03T02:26:13.651Z,91.30
2018-12-03T02:28:41.423Z,91.40
2018-12-03T02:31:09.187Z,91.40
2018-12-03T02:33:36.949Z,91.50
2018-12-03T02:36:04.848Z,91.50
2018-12-03T02:38:32.597Z,91.40
2018-12-03T02:41:00.331Z,91.30
2018-12-03T02:43:28.069Z,91.30
2018-12-03T02:45:55.829Z,91.40
2018-12-03T02:48:23.570Z,91.40
2018-12-03T02:50:51.389Z,91.40
2018-12-03T02:53:19.247Z,91.40
2018-12-03T02:55:47.025Z,91.40
2018-12-03T02:58:14.784Z,91.40
2018-12-03T03:00:43.204Z,91.50
2018-12-03T03:03:10.996Z,91.80
2018-12-03T03:05:38.740Z,91.40
2018-12-03T03:08:06.650Z,91.40
2018-12-03T03:10:34.468Z,91.60
2018-12-03T03:13:02.249Z,91.60
2018-12-03T03:15:30.028Z,91.50
2018-12-03T03:17:57.793Z,91.50
2018-12-03T03:20:25.550Z,91.50
2018-12-03T03:22:53.275Z,91.60
2018-12-03T03:25:21.072Z,91.70
2018-12-03T03:27:48.780Z,91.60
2018-12-03T03:30:16.508Z,91.60
2018-12-03T03:32:44.266Z,91.90
2018-12-03T03:35:13.393Z,91.90
2018-12-03T03:37:41.132Z,91.80
2018-12-03T03:40:14.124Z,91.80
2018-12-03T03:42:42.864Z,91.90
2018-12-03T03:45:13.388Z,92.00
2018-12-03T03:47:41.167Z,92.10
2018-12-03T03:50:09.420Z,92.10
2018-12-03T03:52:37.519Z,92.10
2018-12-03T03:55:05.930Z,92.00
2018-12-03T03:57:33.700Z,92.10
2018-12-03T04:00:01.469Z,91.90
2018-12-03T04:02:29.220Z,92.10
2018-12-03T04:04:56.968Z,92.20
2018-12-03T04:07:24.700Z,92.20
2018-12-03T04:09:52.466Z,92.10
2018-12-03T04:12:20.234Z,92.10
2018-12-03T04:14:47.969Z,92.20
2018-12-03T04:17:15.708Z,92.00
2018-12-03T04:19:43.385Z,92.00
2018-12-03T04:22:11.122Z,92.00
2018-12-03T04:24:38.841Z,91.90
2018-12-03T04:27:06.579Z,92.00
2018-12-03T04:29:34.332Z,92.20
2018-12-03T04:32:02.010Z,92.20
2018-12-03T04:34:29.792Z,92.10
2018-12-03T04:36:57.570Z,92.00
2018-12-03T04:39:25.338Z,91.90
2018-12-03T04:41:53.083Z,92.00
2018-12-03T04:44:20.841Z,92.10
2018-12-03T04:46:48.557Z,92.20
2018-12-03T04:49:16.295Z,92.30
2018-12-03T04:51:44.037Z,92.30
2018-12-03T04:54:11.864Z,92.30
2018-12-03T04:56:39.663Z,92.30
2018-12-03T04:59:07.360Z,92.30
2018-12-03T05:01:35.103Z,92.30
2018-12-03T05:04:02.867Z,92.30
2018-12-03T05:06:30.668Z,92.30
2018-12-03T05:08:58.492Z,92.30
2018-12-03T05:11:26.231Z,92.20
2018-12-03T05:13:53.997Z,92.30
2018-12-03T05:16:21.676Z,92.20
2018-12-03T05:18:49.395Z,92.30
2018-12-03T05:21:17.206Z,92.20
2018-12-03T05:23:44.990Z,92.20
2018-12-03T05:26:12.696Z,92.20
2018-12-03T05:28:40.533Z,92.20
2018-12-03T05:31:08.272Z,92.20
2018-12-03T05:33:35.989Z,92.20
2018-12-03T05:36:03.782Z,92.00
2018-12-03T05:38:31.519Z,91.90
2018-12-03T05:40:59.238Z,91.80
2018-12-03T05:43:27.119Z,91.90
2018-12-03T05:45:54.885Z,91.90
2018-12-03T05:48:22.756Z,92.10
2018-12-03T05:50:50.508Z,92.20
2018-12-03T05:53:18.244Z,92.20
2018-12-03T05:55:45.934Z,92.20
2018-12-03T05:58:13.711Z,92.00
2018-12-03T06:00:41.431Z,92.00
2018-12-03T06:03:09.259Z,92.10
2018-12-03T06:05:38.455Z,92.10
2018-12-03T06:08:06.228Z,92.20
2018-12-03T06:10:33.951Z,92.30
2018-12-03T06:13:01.711Z,92.40
2018-12-03T06:15:29.449Z,92.40
2018-12-03T06:17:57.197Z,92.40
2018-12-03T06:20:24.961Z,92.40
2018-12-03T06:22:53.631Z,92.50
2018-12-03T06:25:24.504Z,92.50
2018-12-03T06:27:52.281Z,92.50
2018-12-03T06:30:21.380Z,92.50
2018-12-03T06:32:49.095Z,92.50
2018-12-03T06:35:17.333Z,92.40
2018-12-03T06:37:45.141Z,92.30
2018-12-03T06:40:17.870Z,92.20
2018-12-03T06:42:45.584Z,92.20
2018-12-03T06:45:14.637Z,92.20
2018-12-03T06:47:45.361Z,92.30
2018-12-03T06:50:13.092Z,92.30
2018-12-03T06:52:40.919Z,92.50
2018-12-03T06:55:09.745Z,92.60
2018-12-03T06:57:37.563Z,92.60
2018-12-03T07:00:08.983Z,92.60
2018-12-03T07:02:36.789Z,92.60
2018-12-03T07:05:05.940Z,92.60
2018-12-03T07:07:33.714Z,92.60
2018-12-03T07:10:01.557Z,92.70
2018-12-03T07:12:29.287Z,92.50
2018-12-03T07:14:57.051Z,92.40
2018-12-03T07:17:24.797Z,92.40
2018-12-03T07:19:52.710Z,92.30
2018-12-03T07:22:20.613Z,92.40
2018-12-03T07:24:48.495Z,92.50
2018-12-03T07:27:16.219Z,92.40
2018-12-03T07:29:43.940Z,92.50
2018-12-03T07:32:11.637Z,92.60
2018-12-03T07:34:39.452Z,92.70
2018-12-03T07:37:07.347Z,92.70
2018-12-03T07:39:35.190Z,92.80
2018-12-03T07:42:02.910Z,92.80
2018-12-03T07:44:30.607Z,92.80
2018-12-03T07:46:58.347Z,92.90
2018-12-03T07:49:26.102Z,92.80
2018-12-03T07:51:53.933Z,92.80
2018-12-03T07:54:21.784Z,92.80
2018-12-03T07:56:49.619Z,92.80
2018-12-03T07:59:17.348Z,92.90
2018-12-03T08:01:45.057Z,92.90
2018-12-03T08:04:12.806Z,92.80
2018-12-03T08:06:40.602Z,92.80
2018-12-03T08:09:09.169Z,92.70
2018-12-03T08:11:36.941Z,92.70
2018-12-03T08:14:05.032Z,92.80
2018-12-03T08:16:32.792Z,92.80
2018-12-03T08:19:00.597Z,92.80
2018-12-03T08:21:28.364Z,92.80
2018-12-03T08:24:01.594Z,92.80
2018-12-03T08:26:29.467Z,92.80
2018-12-03T08:28:57.213Z,92.90
2018-12-03T08:31:25.030Z,92.90
2018-12-03T08:33:52.762Z,92.90
2018-12-03T08:36:20.585Z,92.90
2018-12-03T08:38:48.392Z,92.90
2018-12-03T08:41:16.129Z,92.90
2018-12-03T08:43:43.902Z,93.00
2018-12-03T08:46:11.608Z,93.10
2018-12-03T08:48:40.406Z,93.10
2018-12-03T08:51:08.913Z,93.10
2018-12-03T08:53:36.683Z,93.10
2018-12-03T08:56:04.851Z,93.10
2018-12-03T08:58:32.597Z,93.10
2018-12-03T09:01:03.179Z,93.30
2018-12-03T09:03:30.948Z,93.00
2018-12-03T09:06:05.445Z,92.90
2018-12-03T09:08:33.170Z,93.00
2018-12-03T09:11:00.887Z,93.00
2018-12-03T09:13:28.625Z,93.10
2018-12-03T09:16:00.793Z,93.10
2018-12-03T09:18:37.804Z,93.10
2018-12-03T09:21:15.403Z,93.10
2018-12-03T09:23:44.386Z,93.10
2018-12-03T09:26:12.875Z,93.20
2018-12-03T09:28:40.665Z,93.20
2018-12-03T09:31:08.497Z,93.30
2018-12-03T09:33:36.287Z,93.40
2018-12-03T09:36:04.608Z,93.40
2018-12-03T09:38:42.483Z,93.30
2018-12-03T09:41:10.279Z,93.40
2018-12-03T09:43:41.515Z,93.40
2018-12-03T09:46:09.377Z,93.50
2018-12-03T09:48:37.119Z,93.60
2018-12-03T09:51:05.435Z,93.50
2018-12-03T09:53:33.163Z,93.50
2018-12-03T09:56:00.952Z,93.50
2018-12-03T09:58:28.719Z,93.60
2018-12-03T10:00:56.561Z,93.60
2018-12-03T10:03:26.829Z,93.80
2018-12-03T10:06:06.223Z,94.40
2018-12-03T10:08:34.895Z,94.60
2018-12-03T10:11:02.985Z,94.00
2018-12-03T10:13:31.391Z,93.90
2018-12-03T10:15:59.195Z,93.80
2018-12-03T10:18:26.961Z,93.80
2018-12-03T10:20:57.275Z,93.70
2018-12-03T10:23:25.017Z,93.70
2018-12-03T10:25:55.135Z,94.00
2018-12-03T10:28:23.432Z,93.70
2018-12-03T10:30:52.955Z,93.60
2018-12-03T10:33:31.902Z,93.50
2018-12-03T10:36:01.708Z,93.80
2018-12-03T10:38:32.300Z,93.70
2018-12-03T10:41:03.445Z,93.80
2018-12-03T10:43:31.217Z,94.00
2018-12-03T10:45:59.056Z,94.60
2018-12-03T10:48:26.853Z,94.70
2018-12-03T10:50:54.652Z,94.60
2018-12-03T10:53:24.726Z,94.80
2018-12-03T10:55:52.504Z,94.90
2018-12-03T10:58:20.378Z,94.90
2018-12-03T11:00:53.808Z,95.00
2018-12-03T11:03:27.260Z,95.10
2018-12-03T11:06:01.806Z,95.00
2018-12-03T11:08:29.668Z,95.10
2018-12-03T11:10:57.488Z,94.80
2018-12-03T11:13:25.356Z,94.70
2018-12-03T11:15:53.147Z,94.80
2018-12-03T11:18:21.302Z,94.90
2018-12-03T11:20:49.059Z,95.00
2018-12-03T11:23:19.079Z,94.70
2018-12-03T11:25:46.843Z,94.60
2018-12-03T11:28:16.206Z,94.70
2018-12-03T11:30:45.886Z,94.60
2018-12-03T11:33:15.979Z,94.60
2018-12-03T11:35:43.775Z,94.70
2018-12-03T11:38:15.145Z,94.60
2018-12-03T11:40:47.264Z,94.80
2018-12-03T11:43:15.116Z,94.80
2018-12-03T11:45:42.844Z,94.60
2018-12-03T11:48:10.610Z,94.70
2018-12-03T11:50:38.461Z,94.70
2018-12-03T11:53:06.270Z,94.50
2018-12-03T11:55:34.007Z,94.40
2018-12-03T11:58:01.721Z,94.30
2018-12-03T12:00:29.447Z,94.20
2018-12-03T12:02:57.235Z,94.20
2018-12-03T12:05:25.032Z,94.10
2018-12-03T12:07:52.778Z,94.00
2018-12-03T12:10:20.484Z,93.90
2018-12-03T12:12:48.240Z,94.10
2018-12-03T12:15:16.063Z,93.80
2018-12-03T12:17:43.826Z,93.90
2018-12-03T12:20:11.605Z,94.10
2018-12-03T12:22:39.378Z,94.10
2018-12-03T12:25:10.886Z,94.40
2018-12-03T12:27:41.063Z,94.20
2018-12-03T12:30:11.855Z,94.10
2018-12-03T12:32:39.589Z,94.00
2018-12-03T12:35:08.160Z,94.00
2018-12-03T12:37:35.856Z,94.20
2018-12-03T12:40:04.515Z,94.10
2018-12-03T12:42:32.268Z,94.10
2018-12-03T12:45:00.008Z,94.00
2018-12-03T12:47:27.719Z,93.90
2018-12-03T12:49:55.476Z,93.90
2018-12-03T12:52:23.212Z,93.90
2018-12-03T12:54:50.955Z,93.60
2018-12-03T12:57:18.643Z,93.70
2018-12-03T12:59:46.377Z,93.80
2018-12-03T13:02:15.494Z,93.80
2018-12-03T13:04:43.208Z,93.80
2018-12-03T13:07:10.905Z,93.70
2018-12-03T13:09:38.625Z,93.60
2018-12-03T13:12:07.459Z,93.70
2018-12-03T13:14:35.199Z,93.70
2018-12-03T13:17:02.973Z,93.50
2018-12-03T13:19:30.747Z,93.50
2018-12-03T13:21:58.518Z,93.50
2018-12-03T13:24:26.218Z,93.50
2018-12-03T13:26:53.988Z,93.50
2018-12-03T13:29:21.747Z,93.20
2018-12-03T13:31:49.471Z,93.20
2018-12-03T13:34:17.260Z,93.30
2018-12-03T13:36:44.992Z,93.20
2018-12-03T13:39:12.720Z,92.90
2018-12-03T13:41:40.454Z,92.90
2018-12-03T13:44:08.671Z,92.50
2018-12-03T13:46:36.450Z,92.70
2018-12-03T13:49:04.498Z,92.50
2018-12-03T13:51:32.298Z,92.80
2018-12-03T13:54:00.024Z,92.90
2018-12-03T13:56:27.758Z,93.00
2018-12-03T13:58:55.552Z,93.10
2018-12-03T14:01:24.331Z,93.30
2018-12-03T14:03:56.716Z,93.40
2018-12-03T14:07:32.024Z,93.40
2018-12-03T14:10:23.559Z,93.30
2018-12-03T14:14:08.185Z,93.20
2018-12-03T14:16:45.632Z,93.20
2018-12-03T14:19:18.248Z,93.00
2018-12-03T14:21:51.380Z,93.20
2018-12-03T14:24:20.165Z,93.30
2018-12-03T14:26:47.967Z,93.30
2018-12-03T14:29:15.728Z,93.40
2018-12-03T14:31:43.544Z,93.60
2018-12-03T14:34:20.492Z,93.40
2018-12-03T14:36:48.334Z,93.40
2018-12-03T14:39:16.102Z,93.30
2018-12-03T14:41:43.916Z,93.30
2018-12-03T14:44:11.885Z,93.30
2018-12-03T14:46:39.651Z,93.30
2018-12-03T14:49:07.484Z,93.30
2018-12-03T14:51:35.231Z,93.30
2018-12-03T14:54:02.995Z,93.20
2018-12-03T14:56:30.755Z,93.10
2018-12-03T14:58:58.640Z,93.10
2018-12-03T15:01:26.388Z,93.10
2018-12-03T15:03:54.115Z,93.30
2018-12-03T15:06:21.891Z,93.00
2018-12-03T15:08:49.640Z,92.80
2018-12-03T15:11:17.354Z,92.90
2018-12-03T15:13:45.143Z,92.80
2018-12-03T15:16:12.885Z,92.90
2018-12-03T15:18:40.665Z,93.00
2018-12-03T15:21:08.452Z,93.00
2018-12-03T15:23:36.469Z,93.00
2018-12-03T15:26:04.255Z,93.00
2018-12-03T15:28:32.036Z,92.80
2018-12-03T15:30:59.840Z,92.40
2018-12-03T15:33:27.602Z,92.60
2018-12-03T15:35:55.335Z,92.60
2018-12-03T15:38:23.112Z,92.50
2018-12-03T15:40:50.918Z,92.70
2018-12-03T15:43:18.643Z,93.00
2018-12-03T15:45:46.449Z,93.10
2018-12-03T15:48:14.165Z,93.20
2018-12-03T15:50:41.902Z,93.30
2018-12-03T15:53:09.666Z,93.50
2018-12-03T15:55:37.419Z,93.90
2018-12-03T15:58:05.132Z,94.00
2018-12-03T16:00:32.950Z,94.00
2018-12-03T16:03:02.309Z,94.00
2018-12-03T16:05:30.048Z,94.00
2018-12-03T16:07:57.779Z,94.00
2018-12-03T16:10:25.524Z,94.10
2018-12-03T16:12:53.257Z,94.00
2018-12-03T16:15:21.050Z,93.90
2018-12-03T16:17:48.769Z,94.00
2018-12-03T16:20:16.510Z,93.90
2018-12-03T16:22:44.261Z,93.80
2018-12-03T16:25:12.001Z,93.80
2018-12-03T16:27:39.757Z,93.60
2018-12-03T16:30:11.869Z,93.60
2018-12-03T16:32:39.643Z,93.50
2018-12-03T16:35:07.388Z,93.50
2018-12-03T16:37:35.122Z,93.30
2018-12-03T16:40:03.125Z,93.50
2018-12-03T16:42:30.836Z,93.60
2018-12-03T16:44:58.547Z,93.70
2018-12-03T16:47:26.300Z,93.70
2018-12-03T16:49:54.040Z,93.80
2018-12-03T16:52:21.789Z,93.70
2018-12-03T16:54:49.473Z,93.60
2018-12-03T16:57:17.214Z,93.50
2018-12-03T16:59:44.932Z,93.10
2018-12-03T17:02:12.651Z,93.20
2018-12-03T17:04:40.371Z,93.50
2018-12-03T17:07:13.936Z,93.70
2018-12-03T17:09:36.022Z,93.50
2018-12-03T17:12:03.741Z,93.40
2018-12-03T17:14:31.465Z,93.40
2018-12-03T17:16:59.209Z,93.50
2018-12-03T17:19:26.968Z,94.00
2018-12-03T17:22:06.175Z,93.70
2018-12-03T17:24:36.207Z,93.80
2018-12-03T17:27:04.323Z,93.80
2018-12-03T17:29:32.111Z,94.00
2018-12-03T17:31:59.854Z,93.50
2018-12-03T17:34:27.575Z,93.70
2018-12-03T17:36:55.307Z,93.60
2018-12-03T17:39:23.787Z,93.10
2018-12-03T17:41:51.522Z,93.10
2018-12-03T17:44:19.236Z,93.30
2018-12-03T17:46:46.988Z,93.30
2018-12-03T17:49:14.828Z,93.50
2018-12-03T17:51:42.840Z,93.40
2018-12-03T17:54:10.605Z,93.50
2018-12-03T17:56:38.895Z,93.60
2018-12-03T17:59:06.758Z,93.50
2018-12-03T18:01:34.516Z,93.50
2018-12-03T18:04:02.364Z,93.50
2018-12-03T18:06:30.282Z,93.50
2018-12-03T18:08:58.274Z,93.60
2018-12-03T18:11:26.170Z,93.70
2018-12-03T18:13:54.247Z,94.00
2018-12-03T18:16:22.244Z,93.80
2018-12-03T18:18:50.252Z,93.50
2018-12-03T18:21:18.195Z,93.60
2018-12-03T18:23:46.093Z,93.70
2018-12-03T18:26:13.920Z,93.70
2018-12-03T18:28:41.762Z,93.70
2018-12-03T18:31:09.804Z,93.70
2018-12-03T18:33:37.825Z,93.60
2018-12-03T18:36:05.751Z,93.50
2018-12-03T18:38:33.580Z,93.50
2018-12-03T18:41:03.497Z,93.70
2018-12-03T18:43:29.255Z,93.50
2018-12-03T18:45:57.385Z,93.60
2018-12-03T18:48:25.267Z,93.50
2018-12-03T18:50:54.208Z,93.50
2018-12-03T18:53:24.900Z,93.50
2018-12-03T18:55:53.114Z,93.50
2018-12-03T18:58:32.160Z,93.30
2018-12-03T19:01:00.050Z,93.30
2018-12-03T19:03:27.868Z,93.10
2018-12-03T19:05:55.664Z,93.20
2018-12-03T19:08:23.543Z,93.30
2018-12-03T19:10:51.401Z,93.40
2018-12-03T19:13:19.260Z,93.40
2018-12-03T19:15:47.152Z,93.40
2018-12-03T19:18:14.904Z,93.40
2018-12-03T19:20:42.864Z,93.40
2018-12-03T19:23:10.667Z,93.40
2018-12-03T19:25:38.375Z,93.40
2018-12-03T19:28:06.147Z,93.40
2018-12-03T19:30:33.934Z,93.40
2018-12-03T19:33:01.668Z,93.40
2018-12-03T19:35:29.462Z,93.40
2018-12-03T19:37:57.279Z,93.40
2018-12-03T19:40:25.063Z,93.40
2018-12-03T19:42:52.802Z,93.30
2018-12-03T19:45:21.682Z,93.30
2018-12-03T19:47:49.432Z,93.30
2018-12-03T19:50:17.325Z,93.30
2018-12-03T19:52:47.320Z,93.20
2018-12-03T19:55:15.470Z,93.20
2018-12-03T19:57:45.403Z,93.10
2018-12-03T20:00:14.202Z,93.20
2018-12-03T20:02:42.020Z,93.20
2018-12-03T20:05:15.320Z,93.20
2018-12-03T20:07:43.024Z,93.20
2018-12-03T20:10:10.761Z,93.20
2018-12-03T20:12:40.419Z,93.20
2018-12-03T20:15:10.396Z,93.20
2018-12-03T20:17:39.904Z,93.10
2018-12-03T20:20:11.958Z,93.00
2018-12-03T20:22:45.333Z,93.10
2018-12-03T20:25:16.969Z,93.20
2018-12-03T20:28:09.276Z,93.10
2018-12-03T20:31:16.135Z,93.10
2018-12-03T20:33:56.590Z,93.10
2018-12-03T20:37:07.017Z,93.10
2018-12-03T20:40:43.925Z,93.10
2018-12-03T20:43:17.483Z,93.20
2018-12-03T20:46:54.616Z,93.20
2018-12-03T20:49:28.313Z,93.40
2018-12-03T20:52:02.620Z,93.30
2018-12-03T20:54:30.372Z,93.50
2018-12-03T20:56:58.115Z,93.60
2018-12-03T20:59:25.922Z,93.70
2018-12-03T21:01:53.621Z,94.10
2018-12-03T21:04:22.265Z,93.70
2018-12-03T21:06:50.337Z,93.60
2018-12-03T21:09:18.118Z,93.70
2018-12-03T21:12:15.688Z,93.70
2018-12-03T21:14:41.978Z,93.60
2018-12-03T21:17:08.272Z,93.40
2018-12-03T21:19:34.561Z,93.30
2018-12-03T21:22:00.843Z,93.30
2018-12-03T21:24:27.135Z,93.40
2018-12-03T21:26:53.424Z,93.50
2018-12-03T21:29:19.703Z,93.60
2018-12-03T21:31:45.982Z,93.60
2018-12-03T21:34:12.300Z,93.60
2018-12-03T21:36:38.574Z,93.50
2018-12-03T21:39:05.100Z,93.60
2018-12-03T21:41:31.385Z,93.70
2018-12-03T21:43:57.635Z,93.50
2018-12-03T21:46:23.914Z,93.50
2018-12-03T21:48:50.194Z,93.50
2018-12-03T21:51:16.491Z,93.50
2018-12-03T21:53:42.775Z,93.50
2018-12-03T21:56:09.172Z,93.50
2018-12-03T21:58:35.451Z,93.60
2018-12-03T22:01:01.818Z,94.00
2018-12-03T22:03:28.189Z,93.90
2018-12-03T22:05:54.472Z,93.90
2018-12-03T22:08:20.787Z,93.90
2018-12-03T22:10:47.082Z,93.90
2018-12-03T22:13:20.330Z,93.60
2018-12-03T22:15:46.645Z,93.50
2018-12-03T22:18:12.941Z,93.10
2018-12-03T22:20:39.215Z,93.10
2018-12-03T22:23:05.530Z,93.00
2018-12-03T22:25:31.808Z,93.00
2018-12-03T22:27:58.081Z,92.80
2018-12-03T22:30:24.391Z,92.80
2018-12-03T22:32:50.640Z,92.50
2018-12-03T22:35:16.912Z,92.30
2018-12-03T22:37:43.190Z,92.30
2018-12-03T22:40:09.451Z,92.40
2018-12-03T22:42:35.728Z,92.40
2018-12-03T22:45:02.034Z,92.10
2018-12-03T22:47:28.331Z,92.60
2018-12-03T22:49:54.635Z,92.60
2018-12-03T22:52:21.049Z,92.90
2018-12-03T22:54:47.317Z,93.00
2018-12-03T22:57:13.621Z,93.60
2018-12-03T22:59:39.935Z,93.10
2018-12-03T23:02:06.222Z,93.40
2018-12-03T23:04:34.538Z,93.10
2018-12-03T23:07:00.820Z,92.70
2018-12-03T23:09:27.086Z,92.20
2018-12-03T23:11:53.358Z,92.50
2018-12-03T23:14:19.631Z,92.80
2018-12-03T23:16:45.924Z,92.30
2018-12-03T23:19:12.351Z,92.30
2018-12-03T23:21:38.639Z,92.30
2018-12-03T23:24:04.915Z,92.20
2018-12-03T23:26:31.191Z,92.50
2018-12-03T23:28:57.485Z,92.70
2018-12-03T23:31:23.765Z,93.00
2018-12-03T23:33:50.084Z,93.40
2018-12-03T23:36:16.471Z,93.70
2018-12-03T23:38:42.741Z,94.10
2018-12-03T23:41:09.039Z,94.20
2018-12-03T23:43:35.336Z,94.60
2018-12-03T23:46:01.637Z,95.10
2018-12-03T23:48:27.895Z,94.80
2018-12-03T23:50:54.159Z,95.10
2018-12-03T23:53:20.459Z,95.00
2018-12-03T23:55:46.763Z,95.40
2018-12-03T23:58:13.046Z,95.10
